sensor_id;sensor_type;location;lat;lon;timestamp;temperature;humidity
36384;DHT22;22418;51.210;6.976;2024-01-06T00:01:59;9.20;99.90
36384;DHT22;22418;51.210;6.976;2024-01-06T00:04:29;9.30;99.90
36384;DHT22;22418;51.210;6.976;2024-01-06T00:07:00;9.30;99.90
36384;DHT22;22418;51.210;6.976;2024-01-06T00:09:31;9.20;99.90
36384;DHT22;22418;51.210;6.976;2024-01-06T00:12:01;9.30;99.90
36384;DHT22;22418;51.210;6.976;2024-01-06T00:14:32;9.20;99.90
36384;DHT22;22418;51.210;6.976;2024-01-06T00:17:03;9.30;99.90
36384;DHT22;22418;51.210;6.976;2024-01-06T00:19:33;9.30;99.90
36384;DHT22;22418;51.210;6.976;2024-01-06T00:22:04;9.20;99.90
36384;DHT22;22418;51.210;6.976;2024-01-06T00:24:35;9.20;99.90
36384;DHT22;22418;51.210;6.976;2024-01-06T00:27:05;9.20;99.90
36384;DHT22;22418;51.210;6.976;2024-01-06T00:29:36;9.20;99.90
36384;DHT22;22418;51.210;6.976;2024-01-06T00:32:06;9.20;99.90
36384;DHT22;22418;51.210;6.976;2024-01-06T00:34:37;9.20;99.90
36384;DHT22;22418;51.210;6.976;2024-01-06T00:37:07;9.20;99.90
36384;DHT22;22418;51.210;6.976;2024-01-06T00:39:38;9.30;99.90
36384;DHT22;22418;51.210;6.976;2024-01-06T00:42:08;9.20;99.90
36384;DHT22;22418;51.210;6.976;2024-01-06T00:44:39;9.20;99.90
36384;DHT22;22418;51.210;6.976;2024-01-06T00:47:10;9.20;99.90
36384;DHT22;22418;51.210;6.976;2024-01-06T00:49:40;9.20;99.90
36384;DHT22;22418;51.210;6.976;2024-01-06T00:52:11;9.20;99.90
36384;DHT22;22418;51.210;6.976;2024-01-06T00:54:41;9.20;99.90
36384;DHT22;22418;51.210;6.976;2024-01-06T00:57:12;9.20;99.90
36384;DHT22;22418;51.210;6.976;2024-01-06T00:59:42;9.20;99.90
36384;DHT22;22418;51.210;6.976;2024-01-06T01:02:13;9.20;99.90
36384;DHT22;22418;51.210;6.976;2024-01-06T01:04:44;9.20;99.90
36384;DHT22;22418;51.210;6.976;2024-01-06T01:07:14;9.30;99.90
36384;DHT22;22418;51.210;6.976;2024-01-06T01:09:45;9.20;99.90
36384;DHT22;22418;51.210;6.976;2024-01-06T01:12:15;9.20;99.90
36384;DHT22;22418;51.210;6.976;2024-01-06T01:14:46;9.30;99.90
36384;DHT22;22418;51.210;6.976;2024-01-06T01:17:16;9.20;99.90
36384;DHT22;22418;51.210;6.976;2024-01-06T01:19:47;9.30;99.90
36384;DHT22;22418;51.210;6.976;2024-01-06T01:22:17;9.30;99.90
36384;DHT22;22418;51.210;6.976;2024-01-06T01:24:48;9.20;99.90
36384;DHT22;22418;51.210;6.976;2024-01-06T01:27:18;9.20;99.90
36384;DHT22;22418;51.210;6.976;2024-01-06T01:29:49;9.30;99.90
36384;DHT22;22418;51.210;6.976;2024-01-06T01:32:23;9.30;99.90
36384;DHT22;22418;51.210;6.976;2024-01-06T01:34:53;9.30;99.90
36384;DHT22;22418;51.210;6.976;2024-01-06T01:37:24;9.20;99.90
36384;DHT22;22418;51.210;6.976;2024-01-06T01:39:54;9.20;99.90
36384;DHT22;22418;51.210;6.976;2024-01-06T01:42:25;9.20;99.90
36384;DHT22;22418;51.210;6.976;2024-01-06T01:44:55;9.20;99.90
36384;DHT22;22418;51.210;6.976;2024-01-06T01:47:26;9.20;99.90
36384;DHT22;22418;51.210;6.976;2024-01-06T01:49:57;9.20;99.90
36384;DHT22;22418;51.210;6.976;2024-01-06T01:52:28;9.20;99.90
36384;DHT22;22418;51.210;6.976;2024-01-06T01:54:59;9.20;99.90
36384;DHT22;22418;51.210;6.976;2024-01-06T01:57:29;9.20;99.90
36384;DHT22;22418;51.210;6.976;2024-01-06T02:00:01;9.30;99.90
36384;DHT22;22418;51.210;6.976;2024-01-06T02:02:32;9.20;99.90
36384;DHT22;22418;51.210;6.976;2024-01-06T02:05:02;9.20;99.90
36384;DHT22;22418;51.210;6.976;2024-01-06T02:07:33;9.30;99.90
36384;DHT22;22418;51.210;6.976;2024-01-06T02:10:04;9.30;99.90
36384;DHT22;22418;51.210;6.976;2024-01-06T02:12:35;9.30;99.90
36384;DHT22;22418;51.210;6.976;2024-01-06T02:15:05;9.30;99.90
36384;DHT22;22418;51.210;6.976;2024-01-06T02:17:36;9.30;99.90
36384;DHT22;22418;51.210;6.976;2024-01-06T02:20:08;9.30;99.90
36384;DHT22;22418;51.210;6.976;2024-01-06T02:22:38;9.30;99.90
36384;DHT22;22418;51.210;6.976;2024-01-06T02:25:09;9.30;99.90
36384;DHT22;22418;51.210;6.976;2024-01-06T02:27:42;9.30;99.90
36384;DHT22;22418;51.210;6.976;2024-01-06T02:30:13;9.30;99.90
36384;DHT22;22418;51.210;6.976;2024-01-06T02:32:44;9.30;99.90
36384;DHT22;22418;51.210;6.976;2024-01-06T02:35:14;9.30;99.90
36384;DHT22;22418;51.210;6.976;2024-01-06T02:37:45;9.30;99.90
36384;DHT22;22418;51.210;6.976;2024-01-06T02:40:15;9.20;99.90
36384;DHT22;22418;51.210;6.976;2024-01-06T02:42:46;9.30;99.90
36384;DHT22;22418;51.210;6.976;2024-01-06T02:45:16;9.20;99.90
36384;DHT22;22418;51.210;6.976;2024-01-06T02:47:47;9.30;99.90
36384;DHT22;22418;51.210;6.976;2024-01-06T02:50:18;9.20;99.90
36384;DHT22;22418;51.210;6.976;2024-01-06T02:52:48;9.30;99.90
36384;DHT22;22418;51.210;6.976;2024-01-06T02:55:19;9.20;99.90
36384;DHT22;22418;51.210;6.976;2024-01-06T02:57:49;9.20;99.90
36384;DHT22;22418;51.210;6.976;2024-01-06T03:00:20;9.20;99.90
36384;DHT22;22418;51.210;6.976;2024-01-06T03:02:50;9.20;99.90
36384;DHT22;22418;51.210;6.976;2024-01-06T03:05:21;9.20;99.90
36384;DHT22;22418;51.210;6.976;2024-01-06T03:07:51;9.20;99.90
36384;DHT22;22418;51.210;6.976;2024-01-06T03:10:22;9.20;99.90
36384;DHT22;22418;51.210;6.976;2024-01-06T03:12:53;9.30;99.90
36384;DHT22;22418;51.210;6.976;2024-01-06T03:15:24;9.20;99.90
36384;DHT22;22418;51.210;6.976;2024-01-06T03:17:54;9.20;99.90
36384;DHT22;22418;51.210;6.976;2024-01-06T03:20:25;9.30;99.90
36384;DHT22;22418;51.210;6.976;2024-01-06T03:22:55;9.30;99.90
36384;DHT22;22418;51.210;6.976;2024-01-06T03:25:26;9.30;99.90
36384;DHT22;22418;51.210;6.976;2024-01-06T03:27:56;9.30;99.90
36384;DHT22;22418;51.210;6.976;2024-01-06T03:30:27;9.30;99.90
36384;DHT22;22418;51.210;6.976;2024-01-06T03:32:57;9.30;99.90
36384;DHT22;22418;51.210;6.976;2024-01-06T03:35:28;9.30;99.90
36384;DHT22;22418;51.210;6.976;2024-01-06T03:37:59;9.30;99.90
36384;DHT22;22418;51.210;6.976;2024-01-06T03:40:29;9.40;99.90
36384;DHT22;22418;51.210;6.976;2024-01-06T03:43:00;9.30;99.90
36384;DHT22;22418;51.210;6.976;2024-01-06T03:45:30;9.30;99.90
36384;DHT22;22418;51.210;6.976;2024-01-06T03:48:01;9.40;99.90
36384;DHT22;22418;51.210;6.976;2024-01-06T03:50:31;9.30;99.90
36384;DHT22;22418;51.210;6.976;2024-01-06T03:53:02;9.30;99.90
36384;DHT22;22418;51.210;6.976;2024-01-06T03:55:33;9.30;99.90
36384;DHT22;22418;51.210;6.976;2024-01-06T03:58:03;9.30;99.90
36384;DHT22;22418;51.210;6.976;2024-01-06T04:00:34;9.30;99.90
36384;DHT22;22418;51.210;6.976;2024-01-06T04:03:04;9.20;99.90
36384;DHT22;22418;51.210;6.976;2024-01-06T04:05:37;9.20;99.90
36384;DHT22;22418;51.210;6.976;2024-01-06T04:08:07;9.20;99.90
36384;DHT22;22418;51.210;6.976;2024-01-06T04:10:38;9.10;99.90
36384;DHT22;22418;51.210;6.976;2024-01-06T04:13:10;9.10;99.90
36384;DHT22;22418;51.210;6.976;2024-01-06T04:15:41;9.00;99.90
36384;DHT22;22418;51.210;6.976;2024-01-06T04:18:11;9.00;99.90
36384;DHT22;22418;51.210;6.976;2024-01-06T04:20:42;9.10;99.90
36384;DHT22;22418;51.210;6.976;2024-01-06T04:23:13;9.10;99.90
36384;DHT22;22418;51.210;6.976;2024-01-06T04:25:43;9.10;99.90
36384;DHT22;22418;51.210;6.976;2024-01-06T04:28:14;9.00;99.90
36384;DHT22;22418;51.210;6.976;2024-01-06T04:30:44;9.00;99.90
36384;DHT22;22418;51.210;6.976;2024-01-06T04:33:15;9.00;99.90
36384;DHT22;22418;51.210;6.976;2024-01-06T04:35:45;9.00;99.90
36384;DHT22;22418;51.210;6.976;2024-01-06T04:38:16;9.00;99.90
36384;DHT22;22418;51.210;6.976;2024-01-06T04:40:46;9.00;99.90
36384;DHT22;22418;51.210;6.976;2024-01-06T04:43:17;9.00;99.90
36384;DHT22;22418;51.210;6.976;2024-01-06T04:45:47;8.90;99.90
36384;DHT22;22418;51.210;6.976;2024-01-06T04:48:18;8.90;99.90
36384;DHT22;22418;51.210;6.976;2024-01-06T04:50:48;8.90;99.90
36384;DHT22;22418;51.210;6.976;2024-01-06T04:53:19;8.80;99.90
36384;DHT22;22418;51.210;6.976;2024-01-06T04:55:50;8.70;99.90
36384;DHT22;22418;51.210;6.976;2024-01-06T04:58:20;8.60;99.90
36384;DHT22;22418;51.210;6.976;2024-01-06T05:00:51;8.60;99.90
36384;DHT22;22418;51.210;6.976;2024-01-06T05:03:22;8.60;99.90
36384;DHT22;22418;51.210;6.976;2024-01-06T05:05:53;8.60;99.90
36384;DHT22;22418;51.210;6.976;2024-01-06T05:08:23;8.60;99.90
36384;DHT22;22418;51.210;6.976;2024-01-06T05:10:54;8.60;99.90
36384;DHT22;22418;51.210;6.976;2024-01-06T05:13:25;8.60;99.90
36384;DHT22;22418;51.210;6.976;2024-01-06T05:15:56;8.60;99.90
36384;DHT22;22418;51.210;6.976;2024-01-06T05:18:26;8.50;99.90
36384;DHT22;22418;51.210;6.976;2024-01-06T05:20:57;8.50;99.90
36384;DHT22;22418;51.210;6.976;2024-01-06T05:23:27;8.50;99.90
36384;DHT22;22418;51.210;6.976;2024-01-06T05:25:58;8.40;99.90
36384;DHT22;22418;51.210;6.976;2024-01-06T05:28:28;8.40;99.90
36384;DHT22;22418;51.210;6.976;2024-01-06T05:30:59;8.40;99.90
36384;DHT22;22418;51.210;6.976;2024-01-06T05:33:30;8.40;99.90
36384;DHT22;22418;51.210;6.976;2024-01-06T05:36:00;8.40;99.90
36384;DHT22;22418;51.210;6.976;2024-01-06T05:38:31;8.30;99.90
36384;DHT22;22418;51.210;6.976;2024-01-06T05:41:01;8.30;99.90
36384;DHT22;22418;51.210;6.976;2024-01-06T05:43:32;8.30;99.90
36384;DHT22;22418;51.210;6.976;2024-01-06T05:46:03;8.30;99.90
36384;DHT22;22418;51.210;6.976;2024-01-06T05:48:33;8.30;99.90
36384;DHT22;22418;51.210;6.976;2024-01-06T05:51:04;8.30;99.90
36384;DHT22;22418;51.210;6.976;2024-01-06T05:53:36;8.40;99.90
36384;DHT22;22418;51.210;6.976;2024-01-06T05:56:06;8.40;99.90
36384;DHT22;22418;51.210;6.976;2024-01-06T05:58:37;8.40;99.90
36384;DHT22;22418;51.210;6.976;2024-01-06T06:01:08;8.30;99.90
36384;DHT22;22418;51.210;6.976;2024-01-06T06:03:39;8.40;99.90
36384;DHT22;22418;51.210;6.976;2024-01-06T06:06:09;8.40;99.90
36384;DHT22;22418;51.210;6.976;2024-01-06T06:08:41;8.50;99.90
36384;DHT22;22418;51.210;6.976;2024-01-06T06:11:12;8.50;99.90
36384;DHT22;22418;51.210;6.976;2024-01-06T06:13:43;8.50;99.90
36384;DHT22;22418;51.210;6.976;2024-01-06T06:16:14;8.50;99.90
36384;DHT22;22418;51.210;6.976;2024-01-06T06:18:44;8.50;99.90
36384;DHT22;22418;51.210;6.976;2024-01-06T06:21:15;8.50;99.90
36384;DHT22;22418;51.210;6.976;2024-01-06T06:23:46;8.60;99.90
36384;DHT22;22418;51.210;6.976;2024-01-06T06:26:17;8.50;99.90
36384;DHT22;22418;51.210;6.976;2024-01-06T06:28:47;8.70;99.90
36384;DHT22;22418;51.210;6.976;2024-01-06T06:31:18;8.50;99.90
36384;DHT22;22418;51.210;6.976;2024-01-06T06:33:48;8.60;99.90
36384;DHT22;22418;51.210;6.976;2024-01-06T06:36:19;8.50;99.90
36384;DHT22;22418;51.210;6.976;2024-01-06T06:38:50;8.50;99.90
36384;DHT22;22418;51.210;6.976;2024-01-06T06:41:20;8.50;99.90
36384;DHT22;22418;51.210;6.976;2024-01-06T06:43:51;8.50;99.90
36384;DHT22;22418;51.210;6.976;2024-01-06T06:46:21;8.40;99.90
36384;DHT22;22418;51.210;6.976;2024-01-06T06:48:52;8.50;99.90
36384;DHT22;22418;51.210;6.976;2024-01-06T06:51:22;8.50;99.90
36384;DHT22;22418;51.210;6.976;2024-01-06T06:53:56;8.50;99.90
36384;DHT22;22418;51.210;6.976;2024-01-06T06:56:27;8.50;99.90
36384;DHT22;22418;51.210;6.976;2024-01-06T06:58:58;8.50;99.90
36384;DHT22;22418;51.210;6.976;2024-01-06T07:01:28;8.50;99.90
36384;DHT22;22418;51.210;6.976;2024-01-06T07:03:59;8.40;99.90
36384;DHT22;22418;51.210;6.976;2024-01-06T07:06:30;8.40;99.90
36384;DHT22;22418;51.210;6.976;2024-01-06T07:09:00;8.30;99.90
36384;DHT22;22418;51.210;6.976;2024-01-06T07:11:31;8.30;99.90
36384;DHT22;22418;51.210;6.976;2024-01-06T07:14:01;8.30;99.90
36384;DHT22;22418;51.210;6.976;2024-01-06T07:16:32;8.40;99.90
36384;DHT22;22418;51.210;6.976;2024-01-06T07:19:02;8.30;99.90
36384;DHT22;22418;51.210;6.976;2024-01-06T07:21:33;8.20;99.90
36384;DHT22;22418;51.210;6.976;2024-01-06T07:24:04;8.20;99.90
36384;DHT22;22418;51.210;6.976;2024-01-06T07:26:34;8.20;99.90
36384;DHT22;22418;51.210;6.976;2024-01-06T07:29:06;8.10;99.90
36384;DHT22;22418;51.210;6.976;2024-01-06T07:31:38;8.20;99.90
36384;DHT22;22418;51.210;6.976;2024-01-06T07:34:08;8.20;99.90
36384;DHT22;22418;51.210;6.976;2024-01-06T07:36:39;8.30;99.90
36384;DHT22;22418;51.210;6.976;2024-01-06T07:39:10;8.40;99.90
36384;DHT22;22418;51.210;6.976;2024-01-06T07:41:40;8.30;99.90
36384;DHT22;22418;51.210;6.976;2024-01-06T07:44:11;8.40;99.90
36384;DHT22;22418;51.210;6.976;2024-01-06T07:46:42;8.40;99.90
36384;DHT22;22418;51.210;6.976;2024-01-06T07:49:12;8.30;99.90
36384;DHT22;22418;51.210;6.976;2024-01-06T07:51:43;8.30;99.90
36384;DHT22;22418;51.210;6.976;2024-01-06T07:54:13;8.30;99.90
36384;DHT22;22418;51.210;6.976;2024-01-06T07:56:44;8.40;99.90
36384;DHT22;22418;51.210;6.976;2024-01-06T07:59:15;8.40;99.90
36384;DHT22;22418;51.210;6.976;2024-01-06T08:01:46;8.40;99.90
36384;DHT22;22418;51.210;6.976;2024-01-06T08:04:16;8.30;99.90
36384;DHT22;22418;51.210;6.976;2024-01-06T08:06:47;8.40;99.90
36384;DHT22;22418;51.210;6.976;2024-01-06T08:09:17;8.40;99.90
36384;DHT22;22418;51.210;6.976;2024-01-06T08:11:48;8.40;99.90
36384;DHT22;22418;51.210;6.976;2024-01-06T08:14:18;8.40;99.90
36384;DHT22;22418;51.210;6.976;2024-01-06T08:16:49;8.30;99.90
36384;DHT22;22418;51.210;6.976;2024-01-06T08:19:20;8.40;99.90
36384;DHT22;22418;51.210;6.976;2024-01-06T08:21:50;8.40;99.90
36384;DHT22;22418;51.210;6.976;2024-01-06T08:24:21;8.30;99.90
36384;DHT22;22418;51.210;6.976;2024-01-06T08:26:51;8.30;99.90
36384;DHT22;22418;51.210;6.976;2024-01-06T08:29:22;8.40;99.90
36384;DHT22;22418;51.210;6.976;2024-01-06T08:31:52;8.40;99.90
36384;DHT22;22418;51.210;6.976;2024-01-06T08:34:24;8.40;99.90
36384;DHT22;22418;51.210;6.976;2024-01-06T08:36:55;8.40;99.90
36384;DHT22;22418;51.210;6.976;2024-01-06T08:39:25;8.40;99.90
36384;DHT22;22418;51.210;6.976;2024-01-06T08:41:57;8.30;99.90
36384;DHT22;22418;51.210;6.976;2024-01-06T08:44:27;8.20;99.90
36384;DHT22;22418;51.210;6.976;2024-01-06T08:46:58;8.20;99.90
36384;DHT22;22418;51.210;6.976;2024-01-06T08:49:28;8.20;99.90
36384;DHT22;22418;51.210;6.976;2024-01-06T08:51:59;8.20;99.90
36384;DHT22;22418;51.210;6.976;2024-01-06T08:54:29;8.30;99.90
36384;DHT22;22418;51.210;6.976;2024-01-06T08:57:00;8.20;99.90
36384;DHT22;22418;51.210;6.976;2024-01-06T08:59:31;8.20;99.90
36384;DHT22;22418;51.210;6.976;2024-01-06T09:02:01;8.20;99.90
36384;DHT22;22418;51.210;6.976;2024-01-06T09:04:32;8.40;99.90
36384;DHT22;22418;51.210;6.976;2024-01-06T09:07:02;8.20;99.90
36384;DHT22;22418;51.210;6.976;2024-01-06T09:09:33;8.30;99.90
36384;DHT22;22418;51.210;6.976;2024-01-06T09:12:04;8.30;99.90
36384;DHT22;22418;51.210;6.976;2024-01-06T09:14:34;8.20;99.90
36384;DHT22;22418;51.210;6.976;2024-01-06T09:17:05;8.20;99.90
36384;DHT22;22418;51.210;6.976;2024-01-06T09:19:35;8.30;99.90
36384;DHT22;22418;51.210;6.976;2024-01-06T09:22:06;8.30;99.90
36384;DHT22;22418;51.210;6.976;2024-01-06T09:24:36;8.30;99.90
36384;DHT22;22418;51.210;6.976;2024-01-06T09:27:07;8.30;99.90
36384;DHT22;22418;51.210;6.976;2024-01-06T09:29:37;8.30;99.90
36384;DHT22;22418;51.210;6.976;2024-01-06T09:32:08;8.20;99.90
36384;DHT22;22418;51.210;6.976;2024-01-06T09:34:39;8.40;99.90
36384;DHT22;22418;51.210;6.976;2024-01-06T09:37:09;8.40;99.90
36384;DHT22;22418;51.210;6.976;2024-01-06T09:39:40;8.30;99.90
36384;DHT22;22418;51.210;6.976;2024-01-06T09:42:11;8.30;99.90
36384;DHT22;22418;51.210;6.976;2024-01-06T09:44:41;8.30;99.90
36384;DHT22;22418;51.210;6.976;2024-01-06T09:47:12;8.30;99.90
36384;DHT22;22418;51.210;6.976;2024-01-06T09:49:48;8.30;99.90
36384;DHT22;22418;51.210;6.976;2024-01-06T09:52:22;8.20;99.90
36384;DHT22;22418;51.210;6.976;2024-01-06T09:54:54;8.10;99.90
36384;DHT22;22418;51.210;6.976;2024-01-06T09:57:24;8.20;99.90
36384;DHT22;22418;51.210;6.976;2024-01-06T09:59:56;8.10;99.90
36384;DHT22;22418;51.210;6.976;2024-01-06T10:02:26;8.10;99.90
36384;DHT22;22418;51.210;6.976;2024-01-06T10:04:57;8.10;99.90
36384;DHT22;22418;51.210;6.976;2024-01-06T10:07:28;8.10;99.90
36384;DHT22;22418;51.210;6.976;2024-01-06T10:09:59;8.20;99.90
36384;DHT22;22418;51.210;6.976;2024-01-06T10:12:29;8.10;99.90
36384;DHT22;22418;51.210;6.976;2024-01-06T10:15:00;8.00;99.90
36384;DHT22;22418;51.210;6.976;2024-01-06T10:17:32;8.00;99.90
36384;DHT22;22418;51.210;6.976;2024-01-06T10:20:09;8.10;99.90
36384;DHT22;22418;51.210;6.976;2024-01-06T10:22:41;8.10;99.90
36384;DHT22;22418;51.210;6.976;2024-01-06T10:25:12;8.00;99.90
36384;DHT22;22418;51.210;6.976;2024-01-06T10:27:44;8.10;99.90
36384;DHT22;22418;51.210;6.976;2024-01-06T10:30:14;8.10;99.90
36384;DHT22;22418;51.210;6.976;2024-01-06T10:32:49;8.10;99.90
36384;DHT22;22418;51.210;6.976;2024-01-06T10:35:20;7.90;99.90
36384;DHT22;22418;51.210;6.976;2024-01-06T10:37:51;7.90;99.90
36384;DHT22;22418;51.210;6.976;2024-01-06T10:40:22;7.80;99.90
36384;DHT22;22418;51.210;6.976;2024-01-06T10:42:53;7.70;99.90
36384;DHT22;22418;51.210;6.976;2024-01-06T10:45:28;7.80;99.90
36384;DHT22;22418;51.210;6.976;2024-01-06T10:47:59;7.70;99.90
36384;DHT22;22418;51.210;6.976;2024-01-06T10:50:30;7.80;99.90
36384;DHT22;22418;51.210;6.976;2024-01-06T10:53:02;7.80;99.90
36384;DHT22;22418;51.210;6.976;2024-01-06T10:55:34;7.80;99.90
36384;DHT22;22418;51.210;6.976;2024-01-06T10:58:05;7.90;99.90
36384;DHT22;22418;51.210;6.976;2024-01-06T11:00:36;7.90;99.90
36384;DHT22;22418;51.210;6.976;2024-01-06T11:03:09;8.00;99.90
36384;DHT22;22418;51.210;6.976;2024-01-06T11:05:41;8.10;99.90
36384;DHT22;22418;51.210;6.976;2024-01-06T11:08:17;8.10;99.90
36384;DHT22;22418;51.210;6.976;2024-01-06T11:10:48;8.10;99.90
36384;DHT22;22418;51.210;6.976;2024-01-06T11:13:22;8.10;99.90
36384;DHT22;22418;51.210;6.976;2024-01-06T11:15:53;8.20;99.90
36384;DHT22;22418;51.210;6.976;2024-01-06T11:18:34;8.20;99.90
36384;DHT22;22418;51.210;6.976;2024-01-06T11:23:45;8.00;99.90
36384;DHT22;22418;51.210;6.976;2024-01-06T11:26:15;8.00;99.90
36384;DHT22;22418;51.210;6.976;2024-01-06T11:28:47;7.90;99.90
36384;DHT22;22418;51.210;6.976;2024-01-06T11:31:18;7.80;99.90
36384;DHT22;22418;51.210;6.976;2024-01-06T11:33:49;7.90;99.90
36384;DHT22;22418;51.210;6.976;2024-01-06T11:36:21;8.00;99.90
36384;DHT22;22418;51.210;6.976;2024-01-06T11:38:52;8.00;99.90
36384;DHT22;22418;51.210;6.976;2024-01-06T11:41:48;7.90;99.90
36384;DHT22;22418;51.210;6.976;2024-01-06T11:44:23;7.90;99.90
36384;DHT22;22418;51.210;6.976;2024-01-06T11:46:56;7.90;99.90
36384;DHT22;22418;51.210;6.976;2024-01-06T11:49:27;7.80;99.90
36384;DHT22;22418;51.210;6.976;2024-01-06T11:52:01;7.80;99.90
36384;DHT22;22418;51.210;6.976;2024-01-06T11:54:32;7.80;99.90
36384;DHT22;22418;51.210;6.976;2024-01-06T11:57:03;7.80;99.90
36384;DHT22;22418;51.210;6.976;2024-01-06T11:59:33;7.80;99.90
36384;DHT22;22418;51.210;6.976;2024-01-06T12:02:04;7.70;99.90
36384;DHT22;22418;51.210;6.976;2024-01-06T12:04:36;7.70;99.90
36384;DHT22;22418;51.210;6.976;2024-01-06T12:07:08;7.70;99.90
36384;DHT22;22418;51.210;6.976;2024-01-06T12:09:38;7.70;99.90
36384;DHT22;22418;51.210;6.976;2024-01-06T12:12:09;7.70;99.90
36384;DHT22;22418;51.210;6.976;2024-01-06T12:14:41;7.60;99.90
36384;DHT22;22418;51.210;6.976;2024-01-06T12:17:12;7.40;99.90
36384;DHT22;22418;51.210;6.976;2024-01-06T12:19:43;7.20;99.90
36384;DHT22;22418;51.210;6.976;2024-01-06T12:22:15;7.20;99.90
36384;DHT22;22418;51.210;6.976;2024-01-06T12:24:48;7.30;99.90
36384;DHT22;22418;51.210;6.976;2024-01-06T12:27:19;7.10;99.90
36384;DHT22;22418;51.210;6.976;2024-01-06T12:29:52;7.10;99.90
36384;DHT22;22418;51.210;6.976;2024-01-06T12:32:23;6.90;99.90
36384;DHT22;22418;51.210;6.976;2024-01-06T12:34:54;7.00;99.90
36384;DHT22;22418;51.210;6.976;2024-01-06T12:37:26;7.10;99.90
36384;DHT22;22418;51.210;6.976;2024-01-06T12:39:57;7.10;99.90
36384;DHT22;22418;51.210;6.976;2024-01-06T12:42:28;7.10;99.90
36384;DHT22;22418;51.210;6.976;2024-01-06T12:44:58;7.10;99.90
36384;DHT22;22418;51.210;6.976;2024-01-06T12:47:29;7.20;99.90
36384;DHT22;22418;51.210;6.976;2024-01-06T12:49:59;7.20;99.90
36384;DHT22;22418;51.210;6.976;2024-01-06T12:52:30;7.20;99.90
36384;DHT22;22418;51.210;6.976;2024-01-06T12:55:01;7.10;99.90
36384;DHT22;22418;51.210;6.976;2024-01-06T12:57:33;6.90;99.90
36384;DHT22;22418;51.210;6.976;2024-01-06T13:00:04;6.80;99.90
36384;DHT22;22418;51.210;6.976;2024-01-06T13:02:38;6.90;99.90
36384;DHT22;22418;51.210;6.976;2024-01-06T13:05:08;7.00;99.90
36384;DHT22;22418;51.210;6.976;2024-01-06T13:07:39;7.00;99.90
36384;DHT22;22418;51.210;6.976;2024-01-06T13:10:10;6.90;99.90
36384;DHT22;22418;51.210;6.976;2024-01-06T13:12:41;6.90;99.90
36384;DHT22;22418;51.210;6.976;2024-01-06T13:15:12;7.00;99.90
36384;DHT22;22418;51.210;6.976;2024-01-06T13:17:42;7.00;99.90
36384;DHT22;22418;51.210;6.976;2024-01-06T13:20:13;6.90;99.90
36384;DHT22;22418;51.210;6.976;2024-01-06T13:22:43;6.90;99.90
36384;DHT22;22418;51.210;6.976;2024-01-06T13:25:14;7.00;99.90
36384;DHT22;22418;51.210;6.976;2024-01-06T13:27:45;7.00;99.90
36384;DHT22;22418;51.210;6.976;2024-01-06T13:30:16;7.00;99.90
36384;DHT22;22418;51.210;6.976;2024-01-06T13:32:46;7.00;99.90
36384;DHT22;22418;51.210;6.976;2024-01-06T13:35:19;7.00;99.90
36384;DHT22;22418;51.210;6.976;2024-01-06T13:37:49;7.00;99.90
36384;DHT22;22418;51.210;6.976;2024-01-06T13:40:22;7.00;99.90
36384;DHT22;22418;51.210;6.976;2024-01-06T13:42:53;6.70;99.90
36384;DHT22;22418;51.210;6.976;2024-01-06T13:45:24;6.50;99.90
36384;DHT22;22418;51.210;6.976;2024-01-06T13:47:55;6.60;99.90
36384;DHT22;22418;51.210;6.976;2024-01-06T13:50:25;6.60;99.90
36384;DHT22;22418;51.210;6.976;2024-01-06T13:52:56;6.50;99.90
36384;DHT22;22418;51.210;6.976;2024-01-06T13:55:26;6.50;99.90
36384;DHT22;22418;51.210;6.976;2024-01-06T13:57:57;6.40;99.90
36384;DHT22;22418;51.210;6.976;2024-01-06T14:00:28;6.60;99.90
36384;DHT22;22418;51.210;6.976;2024-01-06T14:02:59;6.70;99.90
36384;DHT22;22418;51.210;6.976;2024-01-06T14:05:30;6.60;99.90
36384;DHT22;22418;51.210;6.976;2024-01-06T14:08:01;6.50;99.90
36384;DHT22;22418;51.210;6.976;2024-01-06T14:10:31;6.50;99.90
36384;DHT22;22418;51.210;6.976;2024-01-06T14:13:02;6.60;99.90
36384;DHT22;22418;51.210;6.976;2024-01-06T14:15:33;6.80;99.90
36384;DHT22;22418;51.210;6.976;2024-01-06T14:18:06;6.80;99.90
36384;DHT22;22418;51.210;6.976;2024-01-06T14:20:36;6.80;99.90
36384;DHT22;22418;51.210;6.976;2024-01-06T14:23:08;6.80;99.90
36384;DHT22;22418;51.210;6.976;2024-01-06T14:25:40;6.80;99.90
36384;DHT22;22418;51.210;6.976;2024-01-06T14:28:11;6.80;99.90
36384;DHT22;22418;51.210;6.976;2024-01-06T14:30:42;6.80;99.90
36384;DHT22;22418;51.210;6.976;2024-01-06T14:33:12;6.70;99.90
36384;DHT22;22418;51.210;6.976;2024-01-06T14:35:43;6.50;99.90
36384;DHT22;22418;51.210;6.976;2024-01-06T14:38:14;6.60;99.90
36384;DHT22;22418;51.210;6.976;2024-01-06T14:40:45;6.50;99.90
36384;DHT22;22418;51.210;6.976;2024-01-06T14:43:15;6.50;99.90
36384;DHT22;22418;51.210;6.976;2024-01-06T14:45:46;6.50;99.90
36384;DHT22;22418;51.210;6.976;2024-01-06T14:48:17;6.50;99.90
36384;DHT22;22418;51.210;6.976;2024-01-06T14:50:47;6.50;99.90
36384;DHT22;22418;51.210;6.976;2024-01-06T14:53:18;6.20;99.90
36384;DHT22;22418;51.210;6.976;2024-01-06T14:55:51;6.10;99.90
36384;DHT22;22418;51.210;6.976;2024-01-06T14:58:22;6.20;99.90
36384;DHT22;22418;51.210;6.976;2024-01-06T15:00:52;6.40;99.90
36384;DHT22;22418;51.210;6.976;2024-01-06T15:03:24;6.50;99.90
36384;DHT22;22418;51.210;6.976;2024-01-06T15:05:55;6.60;99.90
36384;DHT22;22418;51.210;6.976;2024-01-06T15:08:25;6.60;99.90
36384;DHT22;22418;51.210;6.976;2024-01-06T15:10:56;6.60;99.90
36384;DHT22;22418;51.210;6.976;2024-01-06T15:13:27;6.70;99.90
36384;DHT22;22418;51.210;6.976;2024-01-06T15:15:57;6.60;99.90
36384;DHT22;22418;51.210;6.976;2024-01-06T15:18:28;6.50;99.90
36384;DHT22;22418;51.210;6.976;2024-01-06T15:20:59;6.60;99.90
36384;DHT22;22418;51.210;6.976;2024-01-06T15:23:29;6.70;99.90
36384;DHT22;22418;51.210;6.976;2024-01-06T15:26:00;6.60;99.90
36384;DHT22;22418;51.210;6.976;2024-01-06T15:28:33;6.50;99.90
36384;DHT22;22418;51.210;6.976;2024-01-06T15:31:04;6.60;99.90
36384;DHT22;22418;51.210;6.976;2024-01-06T15:33:35;6.70;99.90
36384;DHT22;22418;51.210;6.976;2024-01-06T15:36:11;6.60;99.90
36384;DHT22;22418;51.210;6.976;2024-01-06T15:38:41;6.40;99.90
36384;DHT22;22418;51.210;6.976;2024-01-06T15:41:12;6.30;99.90
36384;DHT22;22418;51.210;6.976;2024-01-06T15:43:43;6.30;99.90
36384;DHT22;22418;51.210;6.976;2024-01-06T15:46:14;6.30;99.90
36384;DHT22;22418;51.210;6.976;2024-01-06T15:48:46;6.30;99.90
36384;DHT22;22418;51.210;6.976;2024-01-06T15:51:16;6.30;99.90
36384;DHT22;22418;51.210;6.976;2024-01-06T15:53:47;6.30;99.90
36384;DHT22;22418;51.210;6.976;2024-01-06T15:56:17;6.40;99.90
36384;DHT22;22418;51.210;6.976;2024-01-06T15:58:48;6.30;99.90
36384;DHT22;22418;51.210;6.976;2024-01-06T16:01:19;6.30;99.90
36384;DHT22;22418;51.210;6.976;2024-01-06T16:03:49;6.40;99.90
36384;DHT22;22418;51.210;6.976;2024-01-06T16:06:20;6.30;99.90
36384;DHT22;22418;51.210;6.976;2024-01-06T16:08:50;6.40;99.90
36384;DHT22;22418;51.210;6.976;2024-01-06T16:11:21;6.30;99.90